Airfield :
LOGIN :

Register | Disclaimer

   EN    FR    IT 

 










Legend :    VFR   Marginal VFR   IFR   Intensive IFR   Very Intensive IFR
Visi :
Ceiling :
>= 8 km
>= 3000ft
5 to 8 km
1000 to 3000 ft
1500m to 5 km
500 to 1000 ft
800 to 1500m
200 to 500 ft
< 800m
< 200 ft
Symbols :   Thunderstorms  Fog  Heavy snow  Heavy precipitations  Wind > 20 kt
SIGMETs :     Misc.  Thunderstorms  Icing  Turbulence  Mountain Waves  Volcanic Ashes






- Airport Elevation : 184 ft
- IATA code : BRU


EBBR - Bruxelles

CURRENT METAR :
  • 071520Z 28008KT 230V330 CAVOK 13/M00 Q1018 NOSIG

EXPIRED METARs :
  • 071450Z 28010KT 230V320 CAVOK 13/00 Q1018 NOSIG
  • 071420Z 26010KT CAVOK 13/00 Q1018 NOSIG
  • 071350Z 26010KT CAVOK 13/01 Q1017 NOSIG
  • 071320Z 26008KT 180V300 CAVOK 12/M00 Q1017 NOSIG
  • 071250Z 27008KT 220V310 CAVOK 13/00 Q1017 NOSIG

TAF TAF EBBR
Valid from the 07 at 12:00 until the 08 at 18:00 UTC


071110Z 0712/0818 29007KT 9999 SCT035
BECMG 0809/0811 17010KT
PROB30
TEMPO 0811/0814 RA BKN012



MET'MAP, your aeronautical weather chart ! - Copyright ORBIFLY December 2007 - Disclaimer

ORBIFLY MET'MAP TEAM :

Programming & Development : Alexandra Zaïnal
Concept & original design : Baudouin d'Aumeries
Assistance for programming : Marc-Olivier Méhu
Technical & hardware support : Manuel Goepfert

Contact : metmap@orbifly.com




SOURCES & CREDITS :

   NOAA